createdAt,value
2023-01-18T00:01:38.165Z,98446.00
2023-01-18T00:04:08.032Z,98441.00
2023-01-18T00:06:37.920Z,98437.00
2023-01-18T00:09:07.814Z,98435.00
2023-01-18T00:11:37.654Z,98434.00
2023-01-18T00:14:10.536Z,98432.00
2023-01-18T00:16:40.456Z,98421.00
2023-01-18T00:19:13.208Z,98421.00
2023-01-18T00:21:43.853Z,98419.00
2023-01-18T00:24:15.188Z,98420.00
2023-01-18T00:26:46.194Z,98428.00
2023-01-18T00:29:19.274Z,98435.00
2023-01-18T00:31:49.446Z,98430.00
2023-01-18T00:34:19.403Z,98430.00
2023-01-18T00:36:51.821Z,98430.00
2023-01-18T00:39:21.680Z,98421.00
2023-01-18T00:42:03.832Z,98417.00
2023-01-18T00:44:36.310Z,98416.00
2023-01-18T00:47:06.154Z,98422.00
2023-01-18T00:49:36.048Z,98420.00
2023-01-18T00:52:06.161Z,98418.00
2023-01-18T00:54:35.993Z,98408.00
2023-01-18T00:57:06.064Z,98411.00
2023-01-18T00:59:38.485Z,98417.00
2023-01-18T01:02:08.469Z,98425.00
2023-01-18T01:04:50.924Z,98427.00
2023-01-18T01:07:20.790Z,98432.00
2023-01-18T01:09:50.633Z,98440.00
2023-01-18T01:12:32.991Z,98444.00
2023-01-18T01:15:17.952Z,98454.00
2023-01-18T01:18:00.359Z,98468.00
2023-01-18T01:20:44.352Z,98463.00
2023-01-18T01:23:30.265Z,98466.00
2023-01-18T01:26:07.871Z,98469.00
2023-01-18T01:28:38.316Z,98472.00
2023-01-18T01:31:13.752Z,98481.00
2023-01-18T01:33:44.175Z,98488.00
2023-01-18T01:36:16.825Z,98490.00
2023-01-18T01:38:47.013Z,98493.00
2023-01-18T01:41:20.153Z,98488.00
2023-01-18T01:43:52.475Z,98505.00
2023-01-18T01:46:42.230Z,98499.00
2023-01-18T01:49:16.857Z,98504.00
2023-01-18T01:51:49.134Z,98508.00
2023-01-18T01:54:24.703Z,98512.00
2023-01-18T01:57:00.553Z,98514.00
2023-01-18T01:59:30.436Z,98516.00
2023-01-18T02:02:04.005Z,98514.00
2023-01-18T02:04:34.464Z,98514.00
2023-01-18T02:07:04.315Z,98508.00
2023-01-18T02:09:34.179Z,98510.00
2023-01-18T02:12:04.054Z,98497.00
2023-01-18T02:14:34.774Z,98498.00
2023-01-18T02:17:25.839Z,98507.00
2023-01-18T02:20:40.706Z,98501.00
2023-01-18T02:24:02.380Z,98492.00
2023-01-18T02:27:02.644Z,98479.00
2023-01-18T02:30:10.229Z,98508.00
2023-01-18T02:32:55.276Z,98516.00
2023-01-18T02:35:39.557Z,98518.00
2023-01-18T02:38:16.363Z,98517.00
2023-01-18T02:41:00.909Z,98519.00
2023-01-18T02:43:44.207Z,98522.00
2023-01-18T02:46:34.172Z,98527.00
2023-01-18T02:49:11.176Z,98529.00
2023-01-18T02:51:41.973Z,98529.00
2023-01-18T02:54:13.153Z,98520.00
2023-01-18T02:56:47.707Z,98522.00
2023-01-18T02:59:21.538Z,98528.00
2023-01-18T03:01:58.834Z,98526.00
2023-01-18T03:04:32.833Z,98518.00
2023-01-18T03:07:12.067Z,98496.00
2023-01-18T03:09:44.237Z,98508.00
2023-01-18T03:12:21.997Z,98520.00
2023-01-18T03:15:05.078Z,98524.00
2023-01-18T03:17:43.653Z,98528.00
2023-01-18T03:20:15.758Z,98523.00
2023-01-18T03:23:04.865Z,98527.00
2023-01-18T03:25:38.961Z,98519.00
2023-01-18T03:28:25.823Z,98511.00
2023-01-18T03:31:12.282Z,98519.00
2023-01-18T03:33:50.828Z,98510.00
2023-01-18T03:36:26.079Z,98507.00
2023-01-18T03:39:00.624Z,98522.00
2023-01-18T03:41:35.791Z,98526.00
2023-01-18T03:44:12.231Z,98518.00
2023-01-18T03:46:43.898Z,98513.00
2023-01-18T03:49:17.000Z,98515.00
2023-01-18T03:51:59.393Z,98521.00
2023-01-18T03:54:38.304Z,98520.00
2023-01-18T03:57:13.893Z,98513.00
2023-01-18T03:59:43.788Z,98510.00
2023-01-18T04:02:13.778Z,98510.00
2023-01-18T04:04:46.261Z,98514.00
2023-01-18T04:07:16.146Z,98510.00
2023-01-18T04:09:45.988Z,98514.00
2023-01-18T04:12:15.824Z,98521.00
2023-01-18T04:14:45.726Z,98513.00
2023-01-18T04:17:15.603Z,98509.00
2023-01-18T04:19:48.162Z,98517.00
2023-01-18T04:22:18.057Z,98508.00
2023-01-18T04:24:48.038Z,98511.00
2023-01-18T04:27:17.919Z,98508.00
2023-01-18T04:29:47.767Z,98514.00
2023-01-18T04:32:17.605Z,98511.00
2023-01-18T04:34:50.029Z,98514.00
2023-01-18T04:37:19.873Z,98524.00
2023-01-18T04:39:49.950Z,98520.00
2023-01-18T04:42:19.812Z,98521.00
2023-01-18T04:44:49.668Z,98528.00
2023-01-18T04:47:19.561Z,98522.00
2023-01-18T04:49:52.118Z,98530.00
2023-01-18T04:52:21.961Z,98539.00
2023-01-18T04:54:51.965Z,98525.00
2023-01-18T04:57:21.836Z,98526.00
2023-01-18T04:59:51.664Z,98531.00
2023-01-18T05:02:21.620Z,98521.00
2023-01-18T05:04:54.116Z,98525.00
2023-01-18T05:07:27.198Z,98535.00
2023-01-18T05:09:57.056Z,98530.00
2023-01-18T05:12:26.972Z,98539.00
2023-01-18T05:14:56.848Z,98544.00
2023-01-18T05:17:30.480Z,98541.00
2023-01-18T05:20:04.535Z,98546.00
2023-01-18T05:22:34.537Z,98547.00
2023-01-18T05:25:04.377Z,98549.00
2023-01-18T05:27:34.316Z,98543.00
2023-01-18T05:30:06.681Z,98552.00
2023-01-18T05:32:37.926Z,98559.00
2023-01-18T05:35:11.630Z,98561.00
2023-01-18T05:37:41.487Z,98560.00
2023-01-18T05:40:14.291Z,98569.00
2023-01-18T05:42:44.602Z,98567.00
2023-01-18T05:45:14.992Z,98577.00
2023-01-18T05:47:44.939Z,98574.00
2023-01-18T05:50:17.897Z,98575.00
2023-01-18T05:52:47.734Z,98567.00
2023-01-18T05:55:17.863Z,98554.00
2023-01-18T05:57:47.836Z,98556.00
2023-01-18T06:00:18.268Z,98577.00
2023-01-18T06:02:48.177Z,98587.00
2023-01-18T06:05:20.742Z,98586.00
2023-01-18T06:07:50.677Z,98589.00
2023-01-18T06:10:21.601Z,98590.00
2023-01-18T06:12:51.524Z,98593.00
2023-01-18T06:15:21.638Z,98590.00
2023-01-18T06:17:51.489Z,98598.00
2023-01-18T06:20:24.021Z,98596.00
2023-01-18T06:22:53.921Z,98611.00
2023-01-18T06:25:23.747Z,98606.00
2023-01-18T06:27:53.659Z,98608.00
2023-01-18T06:30:23.856Z,98617.00
2023-01-18T06:32:53.704Z,98617.00
2023-01-18T06:35:26.125Z,98613.00
2023-01-18T06:37:56.541Z,98617.00
2023-01-18T06:40:26.377Z,98613.00
2023-01-18T06:42:56.700Z,98613.00
2023-01-18T06:45:26.916Z,98617.00
2023-01-18T06:47:56.871Z,98623.00
2023-01-18T06:50:29.460Z,98626.00
2023-01-18T06:52:59.703Z,98629.00
2023-01-18T06:55:29.798Z,98626.00
2023-01-18T06:57:59.643Z,98630.00
2023-01-18T07:00:29.736Z,98633.00
2023-01-18T07:03:00.055Z,98643.00
2023-01-18T07:05:32.806Z,98648.00
2023-01-18T07:08:03.292Z,98640.00
2023-01-18T07:10:33.240Z,98652.00
2023-01-18T07:13:03.087Z,98659.00
2023-01-18T07:15:32.920Z,98656.00
2023-01-18T07:18:02.759Z,98651.00
2023-01-18T07:20:35.232Z,98656.00
2023-01-18T07:23:05.254Z,98659.00
2023-01-18T07:25:35.162Z,98664.00
2023-01-18T07:28:05.134Z,98672.00
2023-01-18T07:30:34.954Z,98672.00
2023-01-18T07:33:04.916Z,98678.00
2023-01-18T07:35:37.348Z,98671.00
2023-01-18T07:38:07.222Z,98684.00
2023-01-18T07:40:37.089Z,98685.00
2023-01-18T07:43:06.968Z,98687.00
2023-01-18T07:45:37.936Z,98685.00
2023-01-18T07:48:08.558Z,98675.00
2023-01-18T07:50:40.987Z,98678.00
2023-01-18T07:53:10.820Z,98675.00
2023-01-18T07:55:41.824Z,98674.00
2023-01-18T07:58:11.699Z,98675.00
2023-01-18T08:00:41.541Z,98675.00
2023-01-18T08:03:15.116Z,98671.00
2023-01-18T08:05:48.811Z,98667.00
2023-01-18T08:08:20.421Z,98666.00
2023-01-18T08:10:50.293Z,98656.00
2023-01-18T08:13:20.133Z,98659.00
2023-01-18T08:15:50.032Z,98659.00
2023-01-18T08:18:20.141Z,98664.00
2023-01-18T08:20:54.997Z,98667.00
2023-01-18T08:23:25.794Z,98661.00
2023-01-18T08:25:55.860Z,98652.00
2023-01-18T08:28:25.951Z,98662.00
2023-01-18T08:30:56.081Z,98663.00
2023-01-18T08:33:25.945Z,98664.00
2023-01-18T08:35:58.400Z,98666.00
2023-01-18T08:38:28.235Z,98670.00
2023-01-18T08:40:58.082Z,98675.00
2023-01-18T08:43:28.029Z,98671.00
2023-01-18T08:45:57.888Z,98676.00
2023-01-18T08:48:27.789Z,98670.00
2023-01-18T08:51:03.995Z,98675.00
2023-01-18T08:53:34.533Z,98673.00
2023-01-18T08:56:08.501Z,98685.00
2023-01-18T08:58:38.466Z,98679.00
2023-01-18T09:01:09.371Z,98688.00
2023-01-18T09:03:39.909Z,98687.00
2023-01-18T09:06:13.166Z,98687.00
2023-01-18T09:08:43.161Z,98695.00
2023-01-18T09:11:13.612Z,98696.00
2023-01-18T09:13:59.341Z,98691.00
2023-01-18T09:16:30.901Z,98705.00
2023-01-18T09:19:01.464Z,98695.00
2023-01-18T09:21:34.397Z,98700.00
2023-01-18T09:24:04.329Z,98709.00
2023-01-18T09:26:34.222Z,98707.00
2023-01-18T09:29:04.047Z,98717.00
2023-01-18T09:31:34.000Z,98717.00
2023-01-18T09:34:18.519Z,98708.00
2023-01-18T09:36:54.083Z,98707.00
2023-01-18T09:39:25.153Z,98702.00
2023-01-18T09:41:58.121Z,98719.00
2023-01-18T09:44:33.856Z,98718.00
2023-01-18T09:47:08.015Z,98725.00
2023-01-18T09:49:46.149Z,98717.00
2023-01-18T09:52:42.208Z,98716.00
2023-01-18T09:55:20.720Z,98715.00
2023-01-18T09:58:08.124Z,98723.00
2023-01-18T10:00:43.257Z,98718.00
2023-01-18T10:03:20.917Z,98714.00
2023-01-18T10:06:08.520Z,98713.00
2023-01-18T10:08:53.362Z,98717.00
2023-01-18T10:11:31.488Z,98707.00
2023-01-18T10:14:09.605Z,98714.00
2023-01-18T10:16:40.563Z,98717.00
2023-01-18T10:19:21.497Z,98724.00
2023-01-18T10:22:00.109Z,98722.00
2023-01-18T10:24:55.728Z,98726.00
2023-01-18T10:28:15.955Z,98732.00
2023-01-18T10:31:04.393Z,98746.00
2023-01-18T10:33:40.978Z,98739.00
2023-01-18T10:36:17.402Z,98735.00
2023-01-18T10:38:48.514Z,98737.00
2023-01-18T10:41:25.762Z,98740.00
2023-01-18T10:43:55.735Z,98748.00
2023-01-18T10:46:26.429Z,98743.00
2023-01-18T10:48:58.027Z,98748.00
2023-01-18T10:51:35.267Z,98755.00
2023-01-18T10:54:25.729Z,98746.00
2023-01-18T10:57:09.953Z,98745.00
2023-01-18T10:59:42.377Z,98760.00
2023-01-18T11:02:27.484Z,98750.00
2023-01-18T11:05:01.641Z,98749.00
2023-01-18T11:07:32.813Z,98762.00
2023-01-18T11:10:09.701Z,98756.00
2023-01-18T11:12:52.145Z,98745.00
2023-01-18T11:15:32.177Z,98755.00
2023-01-18T11:18:13.199Z,98764.00
2023-01-18T11:20:50.641Z,98747.00
2023-01-18T11:23:25.523Z,98757.00
2023-01-18T11:26:00.855Z,98765.00
2023-01-18T11:28:40.954Z,98758.00
2023-01-18T11:31:14.805Z,98762.00
2023-01-18T11:33:54.088Z,98760.00
2023-01-18T11:36:37.145Z,98755.00
2023-01-18T11:39:31.608Z,98764.00
2023-01-18T11:42:20.787Z,98762.00
2023-01-18T11:45:07.219Z,98777.00
2023-01-18T11:47:50.905Z,98767.00
2023-01-18T11:50:32.353Z,98769.00
2023-01-18T11:53:14.786Z,98770.00
2023-01-18T11:55:56.410Z,98768.00
2023-01-18T11:58:29.958Z,98771.00
2023-01-18T12:01:23.441Z,98764.00
2023-01-18T12:04:02.859Z,98773.00
2023-01-18T12:06:46.466Z,98773.00
2023-01-18T12:09:30.502Z,98774.00
2023-01-18T12:12:19.258Z,98777.00
2023-01-18T12:15:06.434Z,98779.00
2023-01-18T12:18:01.267Z,98784.00
2023-01-18T12:20:52.424Z,98781.00
2023-01-18T12:23:52.591Z,98775.00
2023-01-18T12:26:50.329Z,98791.00
2023-01-18T12:30:12.260Z,98793.00
2023-01-18T12:33:34.310Z,98795.00
2023-01-18T12:36:32.125Z,98801.00
2023-01-18T12:39:10.890Z,98813.00
2023-01-18T12:41:54.733Z,98805.00
2023-01-18T12:45:02.242Z,98814.00
2023-01-18T12:47:39.486Z,98814.00
2023-01-18T12:50:24.133Z,98824.00
2023-01-18T12:53:00.881Z,98817.00
2023-01-18T12:55:34.994Z,98832.00
2023-01-18T12:58:05.952Z,98830.00
2023-01-18T13:00:41.028Z,98832.00
2023-01-18T13:03:16.493Z,98843.00
2023-01-18T13:05:56.744Z,98846.00
2023-01-18T13:08:40.077Z,98835.00
2023-01-18T13:11:17.323Z,98851.00
2023-01-18T13:13:48.769Z,98849.00
2023-01-18T13:16:34.719Z,98853.00
2023-01-18T13:19:08.702Z,98857.00
2023-01-18T13:21:56.339Z,98863.00
2023-01-18T13:24:42.121Z,98858.00
2023-01-18T13:27:14.152Z,98866.00
2023-01-18T13:29:46.319Z,98863.00
2023-01-18T13:32:27.812Z,98866.00
2023-01-18T13:35:19.613Z,98873.00
2023-01-18T13:37:56.432Z,98882.00
2023-01-18T13:40:42.937Z,98887.00
2023-01-18T13:43:37.253Z,98882.00
2023-01-18T13:46:23.123Z,98892.00
2023-01-18T13:48:55.526Z,98891.00
2023-01-18T13:51:58.810Z,98904.00
2023-01-18T13:55:07.772Z,98904.00
2023-01-18T13:57:38.388Z,98905.00
2023-01-18T14:00:24.864Z,98901.00
2023-01-18T14:02:57.616Z,98920.00
2023-01-18T14:05:31.285Z,98919.00
2023-01-18T14:08:05.149Z,98923.00
2023-01-18T14:10:41.144Z,98928.00
2023-01-18T14:13:17.830Z,98934.00
2023-01-18T14:15:53.214Z,98933.00
2023-01-18T14:18:28.686Z,98942.00
2023-01-18T14:21:11.364Z,98950.00
2023-01-18T14:24:18.387Z,98956.00
2023-01-18T14:26:51.622Z,98965.00
2023-01-18T14:29:28.612Z,98964.00
2023-01-18T14:32:02.163Z,98967.00
2023-01-18T14:34:59.376Z,98970.00
2023-01-18T14:37:32.459Z,98974.00
2023-01-18T14:40:18.303Z,98986.00
2023-01-18T14:42:55.550Z,98984.00
2023-01-18T14:45:29.714Z,98988.00
2023-01-18T14:48:03.195Z,98992.00
2023-01-18T14:50:40.832Z,98991.00
2023-01-18T14:53:17.357Z,98993.00
2023-01-18T14:56:05.908Z,99004.00
2023-01-18T14:58:42.945Z,99002.00
2023-01-18T15:01:29.766Z,99017.00
2023-01-18T15:04:02.009Z,99022.00
2023-01-18T15:06:39.949Z,99020.00
2023-01-18T15:09:12.539Z,99033.00
2023-01-18T15:11:44.490Z,99028.00
2023-01-18T15:14:22.263Z,99034.00
2023-01-18T15:16:54.796Z,99035.00
2023-01-18T15:19:27.200Z,99034.00
2023-01-18T15:21:57.925Z,99044.00
2023-01-18T15:24:29.295Z,99048.00
2023-01-18T15:27:04.251Z,99054.00
2023-01-18T15:29:38.927Z,99065.00
2023-01-18T15:32:13.872Z,99065.00
2023-01-18T15:34:50.190Z,99061.00
2023-01-18T15:37:25.418Z,99073.00
2023-01-18T15:40:02.243Z,99075.00
2023-01-18T15:42:36.957Z,99084.00
2023-01-18T15:45:19.067Z,99092.00
2023-01-18T15:47:52.207Z,99094.00
2023-01-18T15:50:24.174Z,99092.00
2023-01-18T15:53:02.170Z,99099.00
2023-01-18T15:55:38.659Z,99101.00
2023-01-18T15:58:16.024Z,99101.00
2023-01-18T16:00:58.061Z,99111.00
2023-01-18T16:03:38.523Z,99115.00
2023-01-18T16:06:17.808Z,99123.00
2023-01-18T16:09:10.643Z,99122.00
2023-01-18T16:11:52.062Z,99116.00
2023-01-18T16:14:34.901Z,99128.00
2023-01-18T16:17:15.935Z,99130.00
2023-01-18T16:19:48.757Z,99145.00
2023-01-18T16:22:26.327Z,99142.00
2023-01-18T16:25:01.441Z,99147.00
2023-01-18T16:27:34.547Z,99147.00
2023-01-18T16:30:17.526Z,99153.00
2023-01-18T16:32:50.345Z,99153.00
2023-01-18T16:35:24.075Z,99147.00
2023-01-18T16:37:54.331Z,99154.00
2023-01-18T16:40:26.016Z,99166.00
2023-01-18T16:43:02.462Z,99158.00
2023-01-18T16:45:37.443Z,99168.00
2023-01-18T16:48:17.242Z,99170.00
2023-01-18T16:50:47.319Z,99182.00
2023-01-18T16:53:17.508Z,99179.00
2023-01-18T16:55:48.349Z,99185.00
2023-01-18T16:58:21.428Z,99192.00
2023-01-18T17:01:00.482Z,99188.00
2023-01-18T17:03:33.051Z,99188.00
2023-01-18T17:06:02.967Z,99194.00
2023-01-18T17:08:33.399Z,99205.00
2023-01-18T17:11:03.464Z,99204.00
2023-01-18T17:13:33.339Z,99213.00
2023-01-18T17:16:03.644Z,99216.00
2023-01-18T17:18:36.145Z,99221.00
2023-01-18T17:21:06.431Z,99216.00
2023-01-18T17:23:36.500Z,99219.00
2023-01-18T17:26:06.740Z,99235.00
2023-01-18T17:28:36.714Z,99231.00
2023-01-18T17:31:06.771Z,99237.00
2023-01-18T17:33:40.472Z,99244.00
2023-01-18T17:36:11.540Z,99246.00
2023-01-18T17:38:41.450Z,99253.00
2023-01-18T17:41:27.686Z,99262.00
2023-01-18T17:43:58.557Z,99259.00
2023-01-18T17:46:28.651Z,99257.00
2023-01-18T17:49:01.294Z,99261.00
2023-01-18T17:51:32.996Z,99270.00
2023-01-18T17:54:10.253Z,99271.00
2023-01-18T17:56:42.952Z,99274.00
2023-01-18T17:59:12.824Z,99273.00
2023-01-18T18:01:43.040Z,99276.00
2023-01-18T18:04:15.500Z,99280.00
2023-01-18T18:06:53.674Z,99293.00
2023-01-18T18:09:24.388Z,99284.00
2023-01-18T18:11:54.915Z,99291.00
2023-01-18T18:14:25.667Z,99290.00
2023-01-18T18:16:55.573Z,99299.00
2023-01-18T18:19:28.393Z,99294.00
2023-01-18T18:21:58.318Z,99300.00
2023-01-18T18:24:28.490Z,99308.00
2023-01-18T18:26:58.358Z,99308.00
2023-01-18T18:29:28.522Z,99297.00
2023-01-18T18:31:58.416Z,99312.00
2023-01-18T18:34:31.085Z,99316.00
2023-01-18T18:37:01.157Z,99314.00
2023-01-18T18:39:31.092Z,99317.00
2023-01-18T18:42:01.780Z,99314.00
2023-01-18T18:44:31.804Z,99319.00
2023-01-18T18:47:04.012Z,99322.00
2023-01-18T18:49:37.351Z,99322.00
2023-01-18T18:52:07.297Z,99326.00
2023-01-18T18:54:37.352Z,99332.00
2023-01-18T18:57:08.034Z,99329.00
2023-01-18T18:59:37.997Z,99330.00
2023-01-18T19:02:08.032Z,99340.00
2023-01-18T19:04:40.574Z,99344.00
2023-01-18T19:07:10.484Z,99345.00
2023-01-18T19:09:40.371Z,99346.00
2023-01-18T19:12:10.339Z,99347.00
2023-01-18T19:14:40.258Z,99355.00
2023-01-18T19:17:13.534Z,99350.00
2023-01-18T19:19:46.431Z,99355.00
2023-01-18T19:22:16.350Z,99359.00
2023-01-18T19:24:46.774Z,99366.00
2023-01-18T19:27:16.725Z,99360.00
2023-01-18T19:29:46.697Z,99361.00
2023-01-18T19:32:16.590Z,99373.00
2023-01-18T19:34:49.033Z,99371.00
2023-01-18T19:37:18.940Z,99375.00
2023-01-18T19:39:50.065Z,99372.00
2023-01-18T19:42:20.193Z,99374.00
2023-01-18T19:44:51.918Z,99377.00
2023-01-18T19:47:21.968Z,99381.00
2023-01-18T19:49:55.810Z,99382.00
2023-01-18T19:52:26.078Z,99384.00
2023-01-18T19:54:56.037Z,99377.00
2023-01-18T19:57:26.330Z,99383.00
2023-01-18T19:59:57.167Z,99376.00
2023-01-18T20:02:27.389Z,99386.00
2023-01-18T20:04:59.994Z,99394.00
2023-01-18T20:07:29.953Z,99394.00
2023-01-18T20:10:00.046Z,99400.00
2023-01-18T20:12:31.724Z,99402.00
2023-01-18T20:15:02.451Z,99401.00
2023-01-18T20:17:32.472Z,99392.00
2023-01-18T20:20:05.077Z,99394.00
2023-01-18T20:22:35.043Z,99407.00
2023-01-18T20:25:05.254Z,99413.00
2023-01-18T20:27:35.194Z,99414.00
2023-01-18T20:30:05.834Z,99414.00
2023-01-18T20:32:36.018Z,99411.00
2023-01-18T20:35:09.498Z,99418.00
2023-01-18T20:37:39.673Z,99422.00
2023-01-18T20:40:12.283Z,99429.00
2023-01-18T20:42:42.316Z,99425.00
2023-01-18T20:45:12.959Z,99426.00
2023-01-18T20:47:42.887Z,99442.00
2023-01-18T20:50:16.375Z,99437.00
2023-01-18T20:52:46.562Z,99433.00
2023-01-18T20:55:16.700Z,99432.00
2023-01-18T20:57:46.755Z,99433.00
2023-01-18T21:00:19.624Z,99435.00
2023-01-18T21:02:50.435Z,99437.00
2023-01-18T21:05:23.014Z,99441.00
2023-01-18T21:07:52.856Z,99449.00
2023-01-18T21:10:23.082Z,99443.00
2023-01-18T21:12:52.925Z,99445.00
2023-01-18T21:15:22.795Z,99448.00
2023-01-18T21:17:52.650Z,99453.00
2023-01-18T21:20:25.104Z,99462.00
2023-01-18T21:22:55.073Z,99472.00
2023-01-18T21:25:24.980Z,99465.00
2023-01-18T21:27:55.248Z,99466.00
2023-01-18T21:30:25.112Z,99465.00
2023-01-18T21:32:55.007Z,99469.00
2023-01-18T21:35:29.851Z,99465.00
2023-01-18T21:38:02.922Z,99478.00
2023-01-18T21:40:33.101Z,99487.00
2023-01-18T21:43:15.465Z,99479.00
2023-01-18T21:45:57.969Z,99484.00
2023-01-18T21:48:29.901Z,99495.00
2023-01-18T21:51:18.983Z,99498.00
2023-01-18T21:54:01.500Z,99492.00
2023-01-18T21:56:31.633Z,99487.00
2023-01-18T21:59:02.722Z,99481.00
2023-01-18T22:01:38.635Z,99488.00
2023-01-18T22:04:24.813Z,99493.00
2023-01-18T22:06:59.350Z,99495.00
2023-01-18T22:09:30.090Z,99501.00
2023-01-18T22:12:00.218Z,99498.00
2023-01-18T22:14:30.137Z,99507.00
2023-01-18T22:17:00.164Z,99517.00
2023-01-18T22:19:30.065Z,99514.00
2023-01-18T22:22:02.825Z,99514.00
2023-01-18T22:24:33.002Z,99524.00
2023-01-18T22:27:02.873Z,99527.00
2023-01-18T22:29:32.777Z,99528.00
2023-01-18T22:32:02.786Z,99532.00
2023-01-18T22:34:32.693Z,99542.00
2023-01-18T22:37:05.702Z,99543.00
2023-01-18T22:39:35.578Z,99533.00
2023-01-18T22:42:05.444Z,99538.00
2023-01-18T22:44:35.665Z,99542.00
2023-01-18T22:47:05.535Z,99547.00
2023-01-18T22:49:35.454Z,99550.00
2023-01-18T22:52:08.031Z,99548.00
2023-01-18T22:54:37.915Z,99555.00
2023-01-18T22:57:07.845Z,99552.00
2023-01-18T22:59:37.716Z,99566.00
2023-01-18T23:02:07.549Z,99557.00
2023-01-18T23:04:37.905Z,99575.00
2023-01-18T23:07:10.396Z,99566.00
2023-01-18T23:09:40.304Z,99562.00
2023-01-18T23:12:10.434Z,99566.00
2023-01-18T23:14:52.819Z,99574.00
2023-01-18T23:17:35.447Z,99570.00
2023-01-18T23:20:06.063Z,99577.00
2023-01-18T23:22:38.584Z,99575.00
2023-01-18T23:25:09.638Z,99580.00
2023-01-18T23:27:39.503Z,99586.00
2023-01-18T23:30:11.737Z,99578.00
2023-01-18T23:32:41.583Z,99576.00
2023-01-18T23:35:12.154Z,99569.00
2023-01-18T23:37:44.572Z,99579.00
2023-01-18T23:40:28.055Z,99579.00
2023-01-18T23:43:10.413Z,99577.00
2023-01-18T23:45:52.811Z,99570.00
2023-01-18T23:48:35.861Z,99572.00
2023-01-18T23:51:19.438Z,99583.00
2023-01-18T23:54:04.877Z,99581.00
2023-01-18T23:56:35.087Z,99580.00
2023-01-18T23:59:05.081Z,99592.00
